sensor_id;sensor_type;location;lat;lon;timestamp;temperature;humidity
46608;DHT22;32330;51.936;7.184;2023-08-30T03:48:58;13.90;99.90
46608;DHT22;32330;51.936;7.184;2023-08-30T03:51:26;13.90;99.90
46608;DHT22;32330;51.936;7.184;2023-08-30T03:53:53;13.90;99.90
46608;DHT22;32330;51.936;7.184;2023-08-30T03:56:22;14.00;99.90
46608;DHT22;32330;51.936;7.184;2023-08-30T03:58:49;14.00;99.90
46608;DHT22;32330;51.936;7.184;2023-08-30T04:01:16;13.90;99.90
46608;DHT22;32330;51.936;7.184;2023-08-30T04:03:43;13.90;99.90
46608;DHT22;32330;51.936;7.184;2023-08-30T04:06:12;14.00;99.90
46608;DHT22;32330;51.936;7.184;2023-08-30T04:08:40;14.00;99.90
46608;DHT22;32330;51.936;7.184;2023-08-30T04:11:06;14.00;99.90
46608;DHT22;32330;51.936;7.184;2023-08-30T04:13:34;14.00;99.90
46608;DHT22;32330;51.936;7.184;2023-08-30T04:16:03;14.00;99.90
46608;DHT22;32330;51.936;7.184;2023-08-30T04:18:30;13.90;99.90
46608;DHT22;32330;51.936;7.184;2023-08-30T04:20:58;14.00;99.90
46608;DHT22;32330;51.936;7.184;2023-08-30T04:23:29;14.00;99.90
46608;DHT22;32330;51.936;7.184;2023-08-30T04:39:06;13.90;99.90
46608;DHT22;32330;51.936;7.184;2023-08-30T04:41:33;13.90;99.90
46608;DHT22;32330;51.936;7.184;2023-08-30T04:44:00;14.00;99.90
46608;DHT22;32330;51.936;7.184;2023-08-30T04:46:29;14.00;99.90
46608;DHT22;32330;51.936;7.184;2023-08-30T04:48:58;14.00;99.90
46608;DHT22;32330;51.936;7.184;2023-08-30T04:51:25;14.00;99.90
46608;DHT22;32330;51.936;7.184;2023-08-30T04:53:53;14.00;99.90
46608;DHT22;32330;51.936;7.184;2023-08-30T04:56:21;14.00;99.90
46608;DHT22;32330;51.936;7.184;2023-08-30T04:58:52;14.00;99.90
46608;DHT22;32330;51.936;7.184;2023-08-30T05:01:19;14.00;99.90
46608;DHT22;32330;51.936;7.184;2023-08-30T05:03:50;14.00;99.90
46608;DHT22;32330;51.936;7.184;2023-08-30T05:06:18;14.10;99.90
46608;DHT22;32330;51.936;7.184;2023-08-30T05:08:45;14.10;99.90
46608;DHT22;32330;51.936;7.184;2023-08-30T05:11:16;14.10;99.90
46608;DHT22;32330;51.936;7.184;2023-08-30T05:13:45;14.00;99.90
46608;DHT22;32330;51.936;7.184;2023-08-30T05:16:13;14.00;99.90
46608;DHT22;32330;51.936;7.184;2023-08-30T05:18:40;14.00;99.90
46608;DHT22;32330;51.936;7.184;2023-08-30T05:21:07;14.00;99.90
46608;DHT22;32330;51.936;7.184;2023-08-30T05:23:34;13.90;99.90
46608;DHT22;32330;51.936;7.184;2023-08-30T05:26:02;13.90;99.90
46608;DHT22;32330;51.936;7.184;2023-08-30T05:28:29;13.90;99.90
46608;DHT22;32330;51.936;7.184;2023-08-30T05:30:58;13.90;99.90
46608;DHT22;32330;51.936;7.184;2023-08-30T05:33:49;13.90;99.90
46608;DHT22;32330;51.936;7.184;2023-08-30T05:36:43;13.90;99.90
46608;DHT22;32330;51.936;7.184;2023-08-30T05:39:24;13.90;99.90
46608;DHT22;32330;51.936;7.184;2023-08-30T05:41:55;13.90;99.90
46608;DHT22;32330;51.936;7.184;2023-08-30T05:44:22;13.90;99.90
46608;DHT22;32330;51.936;7.184;2023-08-30T05:46:51;13.90;99.90
46608;DHT22;32330;51.936;7.184;2023-08-30T05:49:18;13.90;99.90
46608;DHT22;32330;51.936;7.184;2023-08-30T05:51:46;13.90;99.90
46608;DHT22;32330;51.936;7.184;2023-08-30T05:54:13;13.90;99.90
46608;DHT22;32330;51.936;7.184;2023-08-30T05:56:41;14.00;99.90
46608;DHT22;32330;51.936;7.184;2023-08-30T05:59:08;13.90;99.90
46608;DHT22;32330;51.936;7.184;2023-08-30T06:01:35;14.00;99.90
46608;DHT22;32330;51.936;7.184;2023-08-30T06:04:04;14.10;99.90
46608;DHT22;32330;51.936;7.184;2023-08-30T06:06:31;14.10;99.90
46608;DHT22;32330;51.936;7.184;2023-08-30T06:08:59;14.10;99.90
46608;DHT22;32330;51.936;7.184;2023-08-30T06:11:26;14.10;99.90
46608;DHT22;32330;51.936;7.184;2023-08-30T06:13:53;14.10;99.90
46608;DHT22;32330;51.936;7.184;2023-08-30T06:16:20;14.10;99.90
46608;DHT22;32330;51.936;7.184;2023-08-30T06:18:47;14.20;99.90
46608;DHT22;32330;51.936;7.184;2023-08-30T06:21:16;14.20;99.90
46608;DHT22;32330;51.936;7.184;2023-08-30T06:23:43;14.30;99.90
46608;DHT22;32330;51.936;7.184;2023-08-30T06:26:11;14.30;99.90
46608;DHT22;32330;51.936;7.184;2023-08-30T06:28:38;14.40;99.90
46608;DHT22;32330;51.936;7.184;2023-08-30T06:31:06;14.40;99.90
46608;DHT22;32330;51.936;7.184;2023-08-30T06:33:34;14.40;99.90
46608;DHT22;32330;51.936;7.184;2023-08-30T06:36:02;14.60;99.90
46608;DHT22;32330;51.936;7.184;2023-08-30T06:38:31;14.60;99.90
46608;DHT22;32330;51.936;7.184;2023-08-30T06:40:58;14.70;99.90
46608;DHT22;32330;51.936;7.184;2023-08-30T06:43:26;14.80;99.90
46608;DHT22;32330;51.936;7.184;2023-08-30T06:45:53;14.80;99.90
46608;DHT22;32330;51.936;7.184;2023-08-30T06:48:20;14.90;99.90
46608;DHT22;32330;51.936;7.184;2023-08-30T06:50:47;15.00;99.90
46608;DHT22;32330;51.936;7.184;2023-08-30T06:53:14;15.00;99.90
46608;DHT22;32330;51.936;7.184;2023-08-30T06:55:43;15.00;99.90
46608;DHT22;32330;51.936;7.184;2023-08-30T06:58:10;15.10;99.90
46608;DHT22;32330;51.936;7.184;2023-08-30T07:00:37;15.10;99.90
46608;DHT22;32330;51.936;7.184;2023-08-30T07:03:04;15.20;99.90
46608;DHT22;32330;51.936;7.184;2023-08-30T07:05:32;15.20;99.90
46608;DHT22;32330;51.936;7.184;2023-08-30T07:07:59;15.30;99.90
46608;DHT22;32330;51.936;7.184;2023-08-30T07:10:26;15.40;99.90
46608;DHT22;32330;51.936;7.184;2023-08-30T07:12:54;15.40;99.90
46608;DHT22;32330;51.936;7.184;2023-08-30T07:15:22;15.60;99.90
46608;DHT22;32330;51.936;7.184;2023-08-30T07:17:49;15.60;99.90
46608;DHT22;32330;51.936;7.184;2023-08-30T07:20:16;15.60;99.90
46608;DHT22;32330;51.936;7.184;2023-08-30T07:22:43;15.60;99.90
46608;DHT22;32330;51.936;7.184;2023-08-30T07:25:11;15.70;99.90
46608;DHT22;32330;51.936;7.184;2023-08-30T07:27:39;15.70;99.90
46608;DHT22;32330;51.936;7.184;2023-08-30T07:30:09;15.70;99.90
46608;DHT22;32330;51.936;7.184;2023-08-30T07:32:37;15.80;99.90
46608;DHT22;32330;51.936;7.184;2023-08-30T07:35:04;15.90;99.90
46608;DHT22;32330;51.936;7.184;2023-08-30T07:37:32;16.00;99.90
46608;DHT22;32330;51.936;7.184;2023-08-30T07:39:59;16.10;99.90
46608;DHT22;32330;51.936;7.184;2023-08-30T07:42:26;16.30;99.90
46608;DHT22;32330;51.936;7.184;2023-08-30T07:44:53;16.20;99.90
46608;DHT22;32330;51.936;7.184;2023-08-30T07:47:22;16.30;99.90
46608;DHT22;32330;51.936;7.184;2023-08-30T07:49:49;16.40;99.90
46608;DHT22;32330;51.936;7.184;2023-08-30T07:52:16;16.40;99.90
46608;DHT22;32330;51.936;7.184;2023-08-30T07:54:43;16.50;99.90
46608;DHT22;32330;51.936;7.184;2023-08-30T07:57:11;16.60;99.90
46608;DHT22;32330;51.936;7.184;2023-08-30T07:59:38;16.60;99.90
46608;DHT22;32330;51.936;7.184;2023-08-30T08:02:09;16.70;99.90
46608;DHT22;32330;51.936;7.184;2023-08-30T08:04:38;16.70;99.90
46608;DHT22;32330;51.936;7.184;2023-08-30T08:07:05;16.60;99.90
46608;DHT22;32330;51.936;7.184;2023-08-30T08:09:32;16.70;99.90
46608;DHT22;32330;51.936;7.184;2023-08-30T08:11:59;16.80;99.90
46608;DHT22;32330;51.936;7.184;2023-08-30T08:14:26;16.90;99.90
46608;DHT22;32330;51.936;7.184;2023-08-30T08:16:54;17.00;99.90
46608;DHT22;32330;51.936;7.184;2023-08-30T08:19:21;17.10;99.90
46608;DHT22;32330;51.936;7.184;2023-08-30T08:21:50;17.10;99.90
46608;DHT22;32330;51.936;7.184;2023-08-30T08:24:19;17.10;99.90
46608;DHT22;32330;51.936;7.184;2023-08-30T08:26:47;17.20;99.90
46608;DHT22;32330;51.936;7.184;2023-08-30T08:29:14;17.30;99.90
46608;DHT22;32330;51.936;7.184;2023-08-30T08:31:41;17.30;99.90
46608;DHT22;32330;51.936;7.184;2023-08-30T08:34:10;17.40;99.90
46608;DHT22;32330;51.936;7.184;2023-08-30T08:36:38;17.50;99.90
46608;DHT22;32330;51.936;7.184;2023-08-30T08:39:07;17.40;99.90
46608;DHT22;32330;51.936;7.184;2023-08-30T08:41:39;17.50;99.90
46608;DHT22;32330;51.936;7.184;2023-08-30T08:44:07;17.60;99.90
46608;DHT22;32330;51.936;7.184;2023-08-30T08:46:35;17.70;99.90
46608;DHT22;32330;51.936;7.184;2023-08-30T08:49:08;17.70;99.90
46608;DHT22;32330;51.936;7.184;2023-08-30T08:51:37;17.80;99.90
46608;DHT22;32330;51.936;7.184;2023-08-30T08:54:04;17.80;99.90
46608;DHT22;32330;51.936;7.184;2023-08-30T08:56:33;17.80;99.90
46608;DHT22;32330;51.936;7.184;2023-08-30T08:59:00;17.90;99.90
46608;DHT22;32330;51.936;7.184;2023-08-30T09:01:28;18.00;99.90
46608;DHT22;32330;51.936;7.184;2023-08-30T09:03:55;18.10;99.90
46608;DHT22;32330;51.936;7.184;2023-08-30T09:06:23;18.30;99.90
46608;DHT22;32330;51.936;7.184;2023-08-30T09:08:51;18.40;99.90
46608;DHT22;32330;51.936;7.184;2023-08-30T09:11:17;18.60;99.90
46608;DHT22;32330;51.936;7.184;2023-08-30T09:13:46;18.50;99.90
46608;DHT22;32330;51.936;7.184;2023-08-30T09:16:14;18.50;99.90
46608;DHT22;32330;51.936;7.184;2023-08-30T09:18:42;18.40;99.90
46608;DHT22;32330;51.936;7.184;2023-08-30T09:21:10;18.30;99.90
46608;DHT22;32330;51.936;7.184;2023-08-30T09:23:38;18.20;99.90
46608;DHT22;32330;51.936;7.184;2023-08-30T09:26:05;18.20;99.90
46608;DHT22;32330;51.936;7.184;2023-08-30T09:28:41;18.10;99.90
46608;DHT22;32330;51.936;7.184;2023-08-30T09:31:17;18.10;99.90
46608;DHT22;32330;51.936;7.184;2023-08-30T09:33:45;18.10;99.90
46608;DHT22;32330;51.936;7.184;2023-08-30T09:36:40;18.10;99.90
46608;DHT22;32330;51.936;7.184;2023-08-30T09:39:08;18.30;99.90
46608;DHT22;32330;51.936;7.184;2023-08-30T09:41:36;18.30;99.90
46608;DHT22;32330;51.936;7.184;2023-08-30T09:44:09;18.30;99.90
46608;DHT22;32330;51.936;7.184;2023-08-30T09:46:44;18.30;99.90
46608;DHT22;32330;51.936;7.184;2023-08-30T09:49:12;18.40;99.90
46608;DHT22;32330;51.936;7.184;2023-08-30T09:51:40;18.30;99.90
46608;DHT22;32330;51.936;7.184;2023-08-30T09:54:14;18.30;99.90
46608;DHT22;32330;51.936;7.184;2023-08-30T09:56:42;18.40;99.90
46608;DHT22;32330;51.936;7.184;2023-08-30T09:59:10;18.50;99.90
46608;DHT22;32330;51.936;7.184;2023-08-30T10:01:38;18.30;99.90
46608;DHT22;32330;51.936;7.184;2023-08-30T10:04:08;18.10;99.90
46608;DHT22;32330;51.936;7.184;2023-08-30T10:06:35;18.20;99.90
46608;DHT22;32330;51.936;7.184;2023-08-30T10:09:04;18.10;99.90
46608;DHT22;32330;51.936;7.184;2023-08-30T10:11:35;18.20;99.90
46608;DHT22;32330;51.936;7.184;2023-08-30T10:14:02;18.10;99.90
46608;DHT22;32330;51.936;7.184;2023-08-30T10:16:38;18.00;99.90
46608;DHT22;32330;51.936;7.184;2023-08-30T10:19:11;18.10;99.90
46608;DHT22;32330;51.936;7.184;2023-08-30T10:21:40;18.00;99.90
46608;DHT22;32330;51.936;7.184;2023-08-30T10:24:12;18.00;99.90
46608;DHT22;32330;51.936;7.184;2023-08-30T10:26:43;17.90;99.90
46608;DHT22;32330;51.936;7.184;2023-08-30T10:29:11;17.60;99.90
46608;DHT22;32330;51.936;7.184;2023-08-30T10:31:40;17.40;99.90
46608;DHT22;32330;51.936;7.184;2023-08-30T10:34:13;17.30;99.90
46608;DHT22;32330;51.936;7.184;2023-08-30T10:36:42;17.00;99.90
46608;DHT22;32330;51.936;7.184;2023-08-30T10:39:11;17.00;99.90
46608;DHT22;32330;51.936;7.184;2023-08-30T10:41:54;16.80;99.90
46608;DHT22;32330;51.936;7.184;2023-08-30T10:44:22;16.80;99.90
46608;DHT22;32330;51.936;7.184;2023-08-30T10:46:52;16.80;99.90
46608;DHT22;32330;51.936;7.184;2023-08-30T10:49:21;16.80;99.90
46608;DHT22;32330;51.936;7.184;2023-08-30T10:51:56;16.70;99.90
46608;DHT22;32330;51.936;7.184;2023-08-30T10:54:24;16.70;99.90
46608;DHT22;32330;51.936;7.184;2023-08-30T10:56:56;16.70;99.90
46608;DHT22;32330;51.936;7.184;2023-08-30T10:59:25;16.70;99.90
46608;DHT22;32330;51.936;7.184;2023-08-30T11:01:53;16.70;99.90
46608;DHT22;32330;51.936;7.184;2023-08-30T11:04:23;16.60;99.90
46608;DHT22;32330;51.936;7.184;2023-08-30T11:06:51;16.60;99.90
46608;DHT22;32330;51.936;7.184;2023-08-30T11:09:20;16.50;99.90
46608;DHT22;32330;51.936;7.184;2023-08-30T11:11:49;16.50;99.90
46608;DHT22;32330;51.936;7.184;2023-08-30T11:14:18;16.50;99.90
46608;DHT22;32330;51.936;7.184;2023-08-30T11:16:46;16.40;99.90
46608;DHT22;32330;51.936;7.184;2023-08-30T11:19:13;16.30;99.90
46608;DHT22;32330;51.936;7.184;2023-08-30T11:21:44;16.30;99.90
46608;DHT22;32330;51.936;7.184;2023-08-30T11:24:11;16.30;99.90
46608;DHT22;32330;51.936;7.184;2023-08-30T11:26:39;16.20;99.90
46608;DHT22;32330;51.936;7.184;2023-08-30T11:29:07;16.10;99.90
46608;DHT22;32330;51.936;7.184;2023-08-30T11:31:35;16.10;99.90
46608;DHT22;32330;51.936;7.184;2023-08-30T11:34:02;16.20;99.90
46608;DHT22;32330;51.936;7.184;2023-08-30T11:36:35;16.30;99.90
46608;DHT22;32330;51.936;7.184;2023-08-30T11:39:05;16.10;99.90
46608;DHT22;32330;51.936;7.184;2023-08-30T11:41:34;16.10;99.90
46608;DHT22;32330;51.936;7.184;2023-08-30T11:44:02;16.10;99.90
46608;DHT22;32330;51.936;7.184;2023-08-30T11:46:30;16.10;99.90
46608;DHT22;32330;51.936;7.184;2023-08-30T11:48:58;16.30;99.90
46608;DHT22;32330;51.936;7.184;2023-08-30T11:51:25;16.30;99.90
46608;DHT22;32330;51.936;7.184;2023-08-30T11:53:52;16.20;99.90
46608;DHT22;32330;51.936;7.184;2023-08-30T11:56:21;16.30;99.90
46608;DHT22;32330;51.936;7.184;2023-08-30T11:58:49;16.30;99.90
46608;DHT22;32330;51.936;7.184;2023-08-30T12:01:18;16.40;99.90
46608;DHT22;32330;51.936;7.184;2023-08-30T12:03:45;16.40;99.90
46608;DHT22;32330;51.936;7.184;2023-08-30T12:06:16;16.30;99.90
46608;DHT22;32330;51.936;7.184;2023-08-30T12:08:44;16.20;99.90
46608;DHT22;32330;51.936;7.184;2023-08-30T12:11:18;16.30;99.90
46608;DHT22;32330;51.936;7.184;2023-08-30T12:13:48;16.40;99.90
46608;DHT22;32330;51.936;7.184;2023-08-30T12:16:17;16.40;99.90
46608;DHT22;32330;51.936;7.184;2023-08-30T12:18:44;16.40;99.90
46608;DHT22;32330;51.936;7.184;2023-08-30T12:21:13;16.50;99.90
46608;DHT22;32330;51.936;7.184;2023-08-30T12:23:40;16.60;99.90
46608;DHT22;32330;51.936;7.184;2023-08-30T12:26:09;16.60;99.90
46608;DHT22;32330;51.936;7.184;2023-08-30T12:28:37;16.70;99.90
46608;DHT22;32330;51.936;7.184;2023-08-30T12:31:07;16.70;99.90
46608;DHT22;32330;51.936;7.184;2023-08-30T12:33:34;16.50;99.90
46608;DHT22;32330;51.936;7.184;2023-08-30T12:36:01;16.40;99.90
46608;DHT22;32330;51.936;7.184;2023-08-30T12:38:29;16.50;99.90
46608;DHT22;32330;51.936;7.184;2023-08-30T12:40:57;16.80;99.90
46608;DHT22;32330;51.936;7.184;2023-08-30T12:43:24;16.90;99.90
46608;DHT22;32330;51.936;7.184;2023-08-30T12:45:51;17.30;99.90
46608;DHT22;32330;51.936;7.184;2023-08-30T12:48:20;17.30;99.90
46608;DHT22;32330;51.936;7.184;2023-08-30T12:50:48;17.20;99.90
46608;DHT22;32330;51.936;7.184;2023-08-30T12:53:15;17.40;99.90
46608;DHT22;32330;51.936;7.184;2023-08-30T12:55:43;17.50;99.90
46608;DHT22;32330;51.936;7.184;2023-08-30T12:58:10;17.40;99.90
46608;DHT22;32330;51.936;7.184;2023-08-30T13:00:40;17.30;99.90
46608;DHT22;32330;51.936;7.184;2023-08-30T13:03:07;17.30;99.90
46608;DHT22;32330;51.936;7.184;2023-08-30T13:05:37;17.20;99.90
46608;DHT22;32330;51.936;7.184;2023-08-30T13:08:05;17.30;99.90
46608;DHT22;32330;51.936;7.184;2023-08-30T13:10:32;17.20;99.90
46608;DHT22;32330;51.936;7.184;2023-08-30T13:13:00;17.20;99.90
46608;DHT22;32330;51.936;7.184;2023-08-30T13:15:27;17.10;99.90
46608;DHT22;32330;51.936;7.184;2023-08-30T13:17:55;17.10;99.90
46608;DHT22;32330;51.936;7.184;2023-08-30T13:20:22;17.00;99.90
46608;DHT22;32330;51.936;7.184;2023-08-30T13:22:50;17.00;99.90
46608;DHT22;32330;51.936;7.184;2023-08-30T13:25:18;17.10;99.90
46608;DHT22;32330;51.936;7.184;2023-08-30T13:27:46;17.10;99.90
46608;DHT22;32330;51.936;7.184;2023-08-30T13:30:13;17.00;99.90
46608;DHT22;32330;51.936;7.184;2023-08-30T13:32:40;17.00;99.90
46608;DHT22;32330;51.936;7.184;2023-08-30T13:35:08;17.00;99.90
46608;DHT22;32330;51.936;7.184;2023-08-30T13:37:35;17.20;99.90
46608;DHT22;32330;51.936;7.184;2023-08-30T13:40:04;17.30;99.90
46608;DHT22;32330;51.936;7.184;2023-08-30T13:42:32;17.30;99.90
46608;DHT22;32330;51.936;7.184;2023-08-30T13:44:59;17.50;99.90
46608;DHT22;32330;51.936;7.184;2023-08-30T13:47:26;17.40;99.90
46608;DHT22;32330;51.936;7.184;2023-08-30T13:49:54;17.50;99.90
46608;DHT22;32330;51.936;7.184;2023-08-30T13:52:21;17.40;99.90
46608;DHT22;32330;51.936;7.184;2023-08-30T13:54:48;17.60;99.90
46608;DHT22;32330;51.936;7.184;2023-08-30T13:57:17;17.80;99.90
46608;DHT22;32330;51.936;7.184;2023-08-30T13:59:44;17.70;99.90
46608;DHT22;32330;51.936;7.184;2023-08-30T14:02:12;17.60;99.90
46608;DHT22;32330;51.936;7.184;2023-08-30T14:04:39;17.70;99.90
46608;DHT22;32330;51.936;7.184;2023-08-30T14:07:06;17.70;99.90
46608;DHT22;32330;51.936;7.184;2023-08-30T14:09:34;17.60;99.90
46608;DHT22;32330;51.936;7.184;2023-08-30T14:12:02;17.60;99.90
46608;DHT22;32330;51.936;7.184;2023-08-30T14:14:31;17.70;99.90
46608;DHT22;32330;51.936;7.184;2023-08-30T14:16:59;17.50;99.90
46608;DHT22;32330;51.936;7.184;2023-08-30T14:19:26;17.40;99.90
46608;DHT22;32330;51.936;7.184;2023-08-30T14:21:53;17.40;99.90
46608;DHT22;32330;51.936;7.184;2023-08-30T14:24:21;17.40;99.90
46608;DHT22;32330;51.936;7.184;2023-08-30T14:26:49;17.40;99.90
46608;DHT22;32330;51.936;7.184;2023-08-30T14:29:20;17.30;99.90
46608;DHT22;32330;51.936;7.184;2023-08-30T14:31:49;17.20;99.90
46608;DHT22;32330;51.936;7.184;2023-08-30T14:34:16;17.20;99.90
46608;DHT22;32330;51.936;7.184;2023-08-30T14:36:43;17.10;99.90
46608;DHT22;32330;51.936;7.184;2023-08-30T14:39:12;17.30;99.90
46608;DHT22;32330;51.936;7.184;2023-08-30T14:41:39;17.70;99.90
46608;DHT22;32330;51.936;7.184;2023-08-30T14:44:07;17.90;99.90
46608;DHT22;32330;51.936;7.184;2023-08-30T14:46:34;18.10;99.90
46608;DHT22;32330;51.936;7.184;2023-08-30T14:49:03;18.00;99.90
46608;DHT22;32330;51.936;7.184;2023-08-30T14:51:30;18.00;99.90
46608;DHT22;32330;51.936;7.184;2023-08-30T14:53:57;18.30;99.90
46608;DHT22;32330;51.936;7.184;2023-08-30T14:56:24;18.50;99.90
46608;DHT22;32330;51.936;7.184;2023-08-30T14:58:51;18.50;99.90
46608;DHT22;32330;51.936;7.184;2023-08-30T15:01:19;18.40;99.90
46608;DHT22;32330;51.936;7.184;2023-08-30T15:03:46;18.50;99.90
46608;DHT22;32330;51.936;7.184;2023-08-30T15:06:15;18.70;99.90
46608;DHT22;32330;51.936;7.184;2023-08-30T15:08:42;18.80;99.90
46608;DHT22;32330;51.936;7.184;2023-08-30T15:11:09;19.10;99.90
46608;DHT22;32330;51.936;7.184;2023-08-30T15:13:37;19.30;99.90
46608;DHT22;32330;51.936;7.184;2023-08-30T15:16:04;19.50;99.90
46608;DHT22;32330;51.936;7.184;2023-08-30T15:18:33;19.30;99.90
46608;DHT22;32330;51.936;7.184;2023-08-30T15:21:00;19.00;99.90
46608;DHT22;32330;51.936;7.184;2023-08-30T15:23:29;18.70;99.90
46608;DHT22;32330;51.936;7.184;2023-08-30T15:25:56;18.40;99.90
46608;DHT22;32330;51.936;7.184;2023-08-30T15:28:23;18.40;99.90
46608;DHT22;32330;51.936;7.184;2023-08-30T15:30:51;18.40;99.90
46608;DHT22;32330;51.936;7.184;2023-08-30T15:33:18;18.40;99.90
46608;DHT22;32330;51.936;7.184;2023-08-30T15:35:46;18.30;99.90
46608;DHT22;32330;51.936;7.184;2023-08-30T15:38:13;18.30;99.90
46608;DHT22;32330;51.936;7.184;2023-08-30T15:40:42;18.30;99.90
46608;DHT22;32330;51.936;7.184;2023-08-30T15:43:10;18.40;99.90
46608;DHT22;32330;51.936;7.184;2023-08-30T15:45:37;18.50;99.90
46608;DHT22;32330;51.936;7.184;2023-08-30T15:48:05;18.40;99.90
46608;DHT22;32330;51.936;7.184;2023-08-30T15:50:32;18.50;99.90
46608;DHT22;32330;51.936;7.184;2023-08-30T15:53:00;18.50;99.90
46608;DHT22;32330;51.936;7.184;2023-08-30T15:55:27;18.40;99.90
46608;DHT22;32330;51.936;7.184;2023-08-30T15:57:57;18.70;99.90
46608;DHT22;32330;51.936;7.184;2023-08-30T16:00:24;18.80;99.90
46608;DHT22;32330;51.936;7.184;2023-08-30T16:02:51;18.90;99.90
46608;DHT22;32330;51.936;7.184;2023-08-30T16:05:19;18.70;99.90
46608;DHT22;32330;51.936;7.184;2023-08-30T16:07:46;18.60;99.90
46608;DHT22;32330;51.936;7.184;2023-08-30T16:10:13;18.60;99.90
46608;DHT22;32330;51.936;7.184;2023-08-30T16:12:40;18.40;99.90
46608;DHT22;32330;51.936;7.184;2023-08-30T16:15:10;18.30;99.90
46608;DHT22;32330;51.936;7.184;2023-08-30T16:17:37;18.20;99.90
46608;DHT22;32330;51.936;7.184;2023-08-30T16:20:05;18.10;99.90
46608;DHT22;32330;51.936;7.184;2023-08-30T16:22:33;18.20;99.90
46608;DHT22;32330;51.936;7.184;2023-08-30T16:24:59;18.10;99.90
46608;DHT22;32330;51.936;7.184;2023-08-30T16:27:27;18.20;99.90
46608;DHT22;32330;51.936;7.184;2023-08-30T16:29:54;18.00;99.90
46608;DHT22;32330;51.936;7.184;2023-08-30T16:32:22;17.90;99.90
46608;DHT22;32330;51.936;7.184;2023-08-30T16:34:50;17.90;99.90
46608;DHT22;32330;51.936;7.184;2023-08-30T16:37:17;17.80;99.90
46608;DHT22;32330;51.936;7.184;2023-08-30T16:39:46;17.70;99.90
46608;DHT22;32330;51.936;7.184;2023-08-30T16:42:13;17.50;99.90
46608;DHT22;32330;51.936;7.184;2023-08-30T16:44:40;17.50;99.90
46608;DHT22;32330;51.936;7.184;2023-08-30T16:47:08;17.70;99.90
46608;DHT22;32330;51.936;7.184;2023-08-30T16:49:36;17.70;99.90
46608;DHT22;32330;51.936;7.184;2023-08-30T16:52:04;17.70;99.90
46608;DHT22;32330;51.936;7.184;2023-08-30T16:54:31;17.70;99.90
46608;DHT22;32330;51.936;7.184;2023-08-30T16:56:59;17.60;99.90
46608;DHT22;32330;51.936;7.184;2023-08-30T16:59:28;17.60;99.90
46608;DHT22;32330;51.936;7.184;2023-08-30T17:01:55;17.60;99.90
46608;DHT22;32330;51.936;7.184;2023-08-30T17:04:24;17.50;99.90
46608;DHT22;32330;51.936;7.184;2023-08-30T17:06:52;17.30;99.90
46608;DHT22;32330;51.936;7.184;2023-08-30T17:09:25;17.30;99.90
46608;DHT22;32330;51.936;7.184;2023-08-30T17:11:53;17.30;99.90
46608;DHT22;32330;51.936;7.184;2023-08-30T17:14:20;17.20;99.90
46608;DHT22;32330;51.936;7.184;2023-08-30T17:16:47;17.10;99.90
46608;DHT22;32330;51.936;7.184;2023-08-30T17:19:16;17.10;99.90
46608;DHT22;32330;51.936;7.184;2023-08-30T17:21:43;17.10;99.90
46608;DHT22;32330;51.936;7.184;2023-08-30T17:24:11;17.20;99.90
46608;DHT22;32330;51.936;7.184;2023-08-30T17:26:39;17.20;99.90
46608;DHT22;32330;51.936;7.184;2023-08-30T17:29:06;17.30;99.90
46608;DHT22;32330;51.936;7.184;2023-08-30T17:31:34;17.40;99.90
46608;DHT22;32330;51.936;7.184;2023-08-30T17:34:01;17.40;99.90
46608;DHT22;32330;51.936;7.184;2023-08-30T17:36:28;17.30;99.90
46608;DHT22;32330;51.936;7.184;2023-08-30T17:38:55;17.30;99.90
46608;DHT22;32330;51.936;7.184;2023-08-30T17:41:24;17.20;99.90
46608;DHT22;32330;51.936;7.184;2023-08-30T17:43:51;17.10;99.90
46608;DHT22;32330;51.936;7.184;2023-08-30T17:46:18;17.10;99.90
46608;DHT22;32330;51.936;7.184;2023-08-30T17:48:45;17.00;99.90
46608;DHT22;32330;51.936;7.184;2023-08-30T17:51:13;16.80;99.90
46608;DHT22;32330;51.936;7.184;2023-08-30T17:53:40;16.80;99.90
46608;DHT22;32330;51.936;7.184;2023-08-30T17:56:07;16.80;99.90
46608;DHT22;32330;51.936;7.184;2023-08-30T17:58:36;16.80;99.90
46608;DHT22;32330;51.936;7.184;2023-08-30T18:01:07;16.70;99.90
46608;DHT22;32330;51.936;7.184;2023-08-30T18:03:35;16.60;99.90
46608;DHT22;32330;51.936;7.184;2023-08-30T18:06:03;16.60;99.90
46608;DHT22;32330;51.936;7.184;2023-08-30T18:08:33;16.50;99.90
46608;DHT22;32330;51.936;7.184;2023-08-30T18:11:00;16.40;99.90
46608;DHT22;32330;51.936;7.184;2023-08-30T18:13:28;16.40;99.90
46608;DHT22;32330;51.936;7.184;2023-08-30T18:15:57;16.40;99.90
46608;DHT22;32330;51.936;7.184;2023-08-30T18:21:55;16.20;99.90
46608;DHT22;32330;51.936;7.184;2023-08-30T18:24:23;16.20;99.90
46608;DHT22;32330;51.936;7.184;2023-08-30T18:26:50;15.90;99.90
46608;DHT22;32330;51.936;7.184;2023-08-30T18:29:18;16.00;99.90
46608;DHT22;32330;51.936;7.184;2023-08-30T18:31:47;15.90;99.90
46608;DHT22;32330;51.936;7.184;2023-08-30T18:34:16;15.90;99.90
46608;DHT22;32330;51.936;7.184;2023-08-30T18:36:43;15.80;99.90
46608;DHT22;32330;51.936;7.184;2023-08-30T18:39:11;15.80;99.90
46608;DHT22;32330;51.936;7.184;2023-08-30T18:41:39;15.80;99.90
46608;DHT22;32330;51.936;7.184;2023-08-30T18:44:06;15.70;99.90
46608;DHT22;32330;51.936;7.184;2023-08-30T18:46:33;15.70;99.90
46608;DHT22;32330;51.936;7.184;2023-08-30T18:49:02;15.60;99.90
46608;DHT22;32330;51.936;7.184;2023-08-30T18:51:29;15.70;99.90
46608;DHT22;32330;51.936;7.184;2023-08-30T18:53:57;15.60;99.90
46608;DHT22;32330;51.936;7.184;2023-08-30T18:56:24;15.60;99.90
46608;DHT22;32330;51.936;7.184;2023-08-30T18:58:52;15.60;99.90
46608;DHT22;32330;51.936;7.184;2023-08-30T19:01:21;15.50;99.90
46608;DHT22;32330;51.936;7.184;2023-08-30T19:03:48;15.50;99.90
46608;DHT22;32330;51.936;7.184;2023-08-30T19:06:17;15.40;99.90
46608;DHT22;32330;51.936;7.184;2023-08-30T19:08:45;15.30;99.90
46608;DHT22;32330;51.936;7.184;2023-08-30T19:11:14;15.30;99.90
46608;DHT22;32330;51.936;7.184;2023-08-30T19:13:42;15.30;99.90
46608;DHT22;32330;51.936;7.184;2023-08-30T19:16:09;15.20;99.90
46608;DHT22;32330;51.936;7.184;2023-08-30T19:18:36;15.20;99.90
46608;DHT22;32330;51.936;7.184;2023-08-30T19:21:03;15.10;99.90
46608;DHT22;32330;51.936;7.184;2023-08-30T19:23:33;15.00;99.90
46608;DHT22;32330;51.936;7.184;2023-08-30T19:26:00;14.90;99.90
46608;DHT22;32330;51.936;7.184;2023-08-30T19:28:27;14.90;99.90
46608;DHT22;32330;51.936;7.184;2023-08-30T19:30:55;14.90;99.90
46608;DHT22;32330;51.936;7.184;2023-08-30T19:33:22;14.80;99.90
46608;DHT22;32330;51.936;7.184;2023-08-30T19:35:51;14.80;99.90
46608;DHT22;32330;51.936;7.184;2023-08-30T19:38:18;14.70;99.90
46608;DHT22;32330;51.936;7.184;2023-08-30T19:40:51;14.70;99.90